Archival Weather

Kayes/Dag-Dag

Kayes/Dag-Dag, Mali (GAKD)

Report from: Thursday, September 21, 2023 7:00 PM UTC
Current time: Thursday, May 30, 2024 12:55 AM UTC

Current weather – Weather history – Daily summaries
Weather forecast

Temperature32.0°C (89.6°F)
Heat index36.8°C (98.3°F)
Dew point23.0°C (73.4°F)
Winds 4 kts (2.1 m/s, 4.6 mph) Northwest (320°)
Visibility6.2 mi. (10 km)
Clouds Few clouds 2,000 ft. (610 m)
Altimeter29.85 in.Hg (1011 mB)
Relative humidity59 %
Density altitude2,393 ft. (729 m)
Flight conditions Visual Meteorological Conditions
Raw dataGAKD 211900Z 32004KT 9999 FEW020 32/23 Q1011
An error has occurred. This application may no longer respond until reloaded. Reload 🗙